| time (UTC) | temp F | wind direction | speed MPH | gust MPH | rain 1hr in | rain 24hr in | rain mn in | humidity % | barometer mb |
| 20260831175033 | 75 | 345 | 3.0 | 14.0 | 0.06 | 0.56 | 0.56 | 91 | 1017.3 |
| 20260831174558 | 75 | 15 | 3.0 | 14.0 | 0.06 | 0.56 | 0.56 | 90 | 1017.3 |
| 20260831174035 | 75 | 322 | 6.0 | 14.0 | 0.05 | 0.55 | 0.55 | 91 | 1017.4 |
| 20260831173534 | 76 | 339 | 4.0 | 8.0 | 0.05 | 0.55 | 0.55 | 93 | 1017.2 |
| 20260831173052 | 76 | 244 | 1.0 | 4.0 | 0.05 | 0.54 | 0.54 | 93 | 1017.3 |
| 20260831172533 | 76 | 230 | 1.0 | 4.0 | 0.05 | 0.52 | 0.52 | 93 | 1017.4 |
| 20260831172034 | 76 | 224 | 1.0 | 3.0 | 0.05 | 0.52 | 0.52 | 93 | 1017.4 |
| 20260831171558 | 76 | 248 | 1.0 | 2.0 | 0.05 | 0.52 | 0.52 | 93 | 1017.4 |
| 20260831171036 | 76 | 236 | 0.0 | 5.0 | 0.04 | 0.51 | 0.51 | 94 | 1017.3 |
| 20260831170536 | 76 | 230 | 1.0 | 7.0 | 0.05 | 0.51 | 0.51 | 93 | 1017.3 |
| 20260831170104 | 76 | 231 | 1.0 | 7.0 | 0.11 | 0.51 | 0.51 | 93 | 1017.3 |
| 20260831165537 | 76 | 234 | 4.0 | 7.0 | 0.25 | 0.52 | 0.51 | 93 | 1017.3 |
| 20260831165034 | 76 | 192 | 2.0 | 5.0 | 0.36 | 0.51 | 0.50 | 93 | 1017.3 |
| 20260831164606 | 76 | 278 | 1.0 | 9.0 | 0.44 | 0.51 | 0.50 | 93 | 1017.3 |
| 20260831164037 | 76 | 277 | 2.0 | 9.0 | 0.48 | 0.51 | 0.50 | 92 | 1017.5 |
| 20260831163535 | 76 | 283 | 4.0 | 9.0 | 0.50 | 0.51 | 0.50 | 91 | 1017.7 |
| 20260831163058 | 77 | 272 | 3.0 | 7.0 | 0.49 | 0.50 | 0.49 | 91 | 1017.9 |
| 20260831162535 | 77 | 276 | 0.0 | 3.0 | 0.48 | 0.49 | 0.48 | 91 | 1017.8 |
| 20260831162035 | 77 | 278 | 1.0 | 5.0 | 0.47 | 0.48 | 0.47 | 90 | 1017.7 |
| 20260831161556 | 77 | 288 | 2.0 | 5.0 | 0.47 | 0.48 | 0.47 | 90 | 1017.7 |
| 20260831161034 | 77 | 328 | 3.0 | 5.0 | 0.47 | 0.48 | 0.47 | 91 | 1017.8 |
| 20260831160537 | 78 | 350 | 2.0 | 8.0 | 0.46 | 0.47 | 0.46 | 88 | 1017.7 |
| 20260831160104 | 79 | 42 | 5.0 | 8.0 | 0.38 | 0.39 | 0.38 | 87 | 1017.8 |
| 20260831155535 | 79 | 19 | 3.0 | 6.0 | 0.25 | 0.26 | 0.25 | 86 | 1017.7 |
| 20260831155035 | 80 | 336 | 4.0 | 6.0 | 0.14 | 0.15 | 0.14 | 85 | 1017.7 |
| 20260831154614 | 81 | 360 | 3.0 | 4.0 | 0.05 | 0.06 | 0.05 | 86 | 1017.6 |
| 20260831154035 | 82 | 352 | 2.0 | 3.0 | 0.02 | 0.03 | 0.02 | 85 | 1017.6 |
| 20260831153532 | 82 | 352 | 2.0 | 4.0 | 0.00 | 0.01 | 0.00 | 81 | 1017.6 |
| 20260831153100 | 83 | 25 | 2.0 | 4.0 | 0.00 | 0.01 | 0.00 | 80 | 1017.6 |
| 20260831152534 | 84 | 54 | 1.0 | 4.0 | 0.00 | 0.01 | 0.00 | 78 | 1017.7 |
| 20260831152032 | 84 | 71 | 2.0 | 4.0 | 0.00 | 0.01 | 0.00 | 77 | 1017.6 |
| 20260831151602 | 84 | 69 | 2.0 | 6.0 | 0.00 | 0.01 | 0.00 | 78 | 1017.6 |
| 20260831151032 | 84 | 94 | 3.0 | 6.0 | 0.00 | 0.01 | 0.00 | 77 | 1017.6 |
| 20260831150532 | 85 | 55 | 4.0 | 6.0 | 0.00 | 0.01 | 0.00 | 75 | 1017.5 |
| 20260831145532 | 86 | 72 | 3.0 | 8.0 | 0.00 | 0.01 | 0.00 | 73 | 1017.5 |
| 20260831145032 | 85 | 82 | 2.0 | 9.0 | 0.00 | 0.01 | 0.00 | 75 | 1017.5 |
| 20260831144609 | 85 | 96 | 1.0 | 9.0 | 0.00 | 0.01 | 0.00 | 75 | 1017.6 |
| 20260831144033 | 85 | 70 | 3.0 | 6.0 | 0.00 | 0.01 | 0.00 | 77 | 1017.6 |
| 20260831143535 | 85 | 22 | 3.0 | 6.0 | 0.00 | 0.01 | 0.00 | 78 | 1017.6 |
| 20260831143106 | 84 | 90 | 2.0 | 6.0 | 0.00 | 0.01 | 0.00 | 81 | 1017.6 |
| 20260831142534 | 84 | 43 | 3.0 | 6.0 | 0.00 | 0.01 | 0.00 | 80 | 1017.5 |
| 20260831142037 | 84 | 24 | 3.0 | 6.0 | 0.00 | 0.01 | 0.00 | 80 | 1017.5 |
| 20260831141617 | 84 | 86 | 3.0 | 6.0 | 0.00 | 0.01 | 0.00 | 80 | 1017.5 |
| 20260831141032 | 84 | 78 | 1.0 | 4.0 | 0.00 | 0.01 | 0.00 | 79 | 1017.5 |
| 20260831140535 | 83 | 96 | 2.0 | 5.0 | 0.00 | 0.01 | 0.00 | 82 | 1017.5 |
| 20260831135533 | 82 | 44 | 2.0 | 6.0 | 0.00 | 0.01 | 0.00 | 81 | 1017.5 |
| 20260831135038 | 83 | 35 | 3.0 | 5.0 | 0.00 | 0.01 | 0.00 | 81 | 1017.5 |
| 20260831134603 | 82 | 87 | 2.0 | 6.0 | 0.00 | 0.01 | 0.00 | 82 | 1017.4 |
| 20260831134034 | 82 | 59 | 3.0 | 6.0 | 0.00 | 0.01 | 0.00 | 82 | 1017.3 |
| 20260831133534 | 82 | 13 | 2.0 | 5.0 | 0.00 | 0.01 | 0.00 | 84 | 1017.3 |
| 20260831133100 | 81 | 66 | 2.0 | 5.0 | 0.00 | 0.01 | 0.00 | 86 | 1017.3 |
| 20260831132536 | 81 | 348 | 3.0 | 6.0 | 0.00 | 0.01 | 0.00 | 87 | 1017.3 |
| 20260831132034 | 80 | 17 | 4.0 | 6.0 | 0.00 | 0.01 | 0.00 | 87 | 1017.2 |
| 20260831131600 | 80 | 345 | 4.0 | 6.0 | 0.00 | 0.01 | 0.00 | 87 | 1017.1 |
| 20260831131035 | 79 | 352 | 4.0 | 6.0 | 0.00 | 0.01 | 0.00 | 89 | 1017.1 |
| 20260831130534 | 79 | 338 | 2.0 | 5.0 | 0.00 | 0.01 | 0.00 | 89 | 1017.2 |
| 20260831125535 | 77 | 343 | 3.0 | 5.0 | 0.00 | 0.01 | 0.00 | 95 | 1017.1 |
| 20260831125035 | 76 | 342 | 1.0 | 4.0 | 0.00 | 0.01 | 0.00 | 95 | 1017.0 |
| 20260831124601 | 75 | 342 | 2.0 | 3.0 | 0.00 | 0.01 | 0.00 | 95 | 1017.0 |
| 20260831124035 | 75 | 348 | 2.0 | 3.0 | 0.00 | 0.01 | 0.00 | 96 | 1017.0 |
| 20260831123534 | 74 | 351 | 2.0 | 3.0 | 0.00 | 0.01 | 0.00 | 96 | 1016.9 |
| 20260831123059 | 74 | 10 | 2.0 | 3.0 | 0.00 | 0.01 | 0.00 | 96 | 1016.9 |
| 20260831122534 | 74 | 352 | 2.0 | 3.0 | 0.00 | 0.01 | 0.00 | 96 | 1016.8 |
| 20260831122037 | 73 | 11 | 1.0 | 2.0 | 0.00 | 0.01 | 0.00 | 96 | 1016.8 |
| 20260831121551 | 73 | 11 | 0.0 | 2.0 | 0.00 | 0.01 | 0.00 | 96 | 1016.9 |
| 20260831121038 | 73 | 11 | 0.0 | 2.0 | 0.00 | 0.01 | 0.00 | 96 | 1016.9 |
| 20260831120534 | 72 | 0 | 0.0 | 0.0 | 0.00 | 0.01 | 0.00 | 96 | 1016.8 |
| 20260831120105 | 72 | 0 | 0.0 | 1.0 | 0.00 | 0.01 | 0.00 | 96 | 1016.6 |
| 20260831115534 | 72 | 0 | 0.0 | 2.0 | 0.00 | 0.01 | 0.00 | 96 | 1016.5 |
| 20260831115034 | 72 | 11 | 0.0 | 2.0 | 0.00 | 0.01 | 0.00 | 96 | 1016.4 |
| 20260831114600 | 72 | 11 | 1.0 | 2.0 | 0.00 | 0.01 | 0.00 | 96 | 1016.4 |
| 20260831114034 | 71 | 11 | 0.0 | 2.0 | 0.00 | 0.01 | 0.00 | 96 | 1016.3 |
| 20260831113534 | 71 | 11 | 0.0 | 2.0 | 0.00 | 0.01 | 0.00 | 96 | 1016.2 |
| 20260831113056 | 71 | 11 | 0.0 | 1.0 | 0.00 | 0.01 | 0.00 | 96 | 1016.2 |
| 20260831112536 | 70 | 0 | 0.0 | 2.0 | 0.00 | 0.01 | 0.00 | 96 | 1016.1 |
| 20260831112034 | 70 | 0 | 0.0 | 2.0 | 0.00 | 0.01 | 0.00 | 96 | 1016.1 |
| 20260831111609 | 70 | 11 | 0.0 | 1.0 | 0.00 | 0.01 | 0.00 | 95 | 1016.1 |
| 20260831111034 | 70 | 0 | 0.0 | 2.0 | 0.00 | 0.01 | 0.00 | 95 | 1016.0 |
| 20260831110538 | 70 | 11 | 0.0 | 2.0 | 0.00 | 0.01 | 0.00 | 95 | 1016.1 |
| 20260831105536 | 70 | 0 | 0.0 | 1.0 | 0.00 | 0.01 | 0.00 | 95 | 1015.9 |
| 20260831105035 | 70 | 0 | 0.0 | 1.0 | 0.00 | 0.01 | 0.00 | 95 | 1015.8 |
| 20260831104559 | 70 | 0 | 0.0 | 1.0 | 0.00 | 0.01 | 0.00 | 95 | 1015.7 |
| 20260831104036 | 70 | 11 | 1.0 | 1.0 | 0.00 | 0.01 | 0.00 | 95 | 1015.8 |
| 20260831103535 | 70 | 11 | 0.0 | 2.0 | 0.00 | 0.01 | 0.00 | 95 | 1015.7 |
| 20260831103050 | 70 | 0 | 0.0 | 2.0 | 0.00 | 0.01 | 0.00 | 95 | 1015.7 |
| 20260831102537 | 70 | 11 | 0.0 | 2.0 | 0.00 | 0.01 | 0.00 | 95 | 1015.8 |
| 20260831102034 | 70 | 0 | 0.0 | 2.0 | 0.00 | 0.01 | 0.00 | 95 | 1015.6 |
| 20260831101558 | 70 | 11 | 0.0 | 2.0 | 0.00 | 0.01 | 0.00 | 95 | 1015.6 |
| 20260831101035 | 70 | 11 | 1.0 | 2.0 | 0.00 | 0.01 | 0.00 | 95 | 1015.6 |
| 20260831100538 | 70 | 11 | 0.0 | 1.0 | 0.00 | 0.01 | 0.00 | 95 | 1015.5 |
| 20260831100106 | 70 | 0 | 0.0 | 1.0 | 0.00 | 0.01 | 0.00 | 95 | 1015.4 |
| 20260831095532 | 70 | 0 | 0.0 | 1.0 | 0.00 | 0.01 | 0.00 | 95 | 1015.4 |
| 20260831095036 | 70 | 11 | 0.0 | 2.0 | 0.00 | 0.01 | 0.00 | 95 | 1015.5 |
| 20260831094603 | 70 | 11 | 0.0 | 2.0 | 0.00 | 0.01 | 0.00 | 95 | 1015.5 |
| 20260831094034 | 70 | 11 | 0.0 | 2.0 | 0.00 | 0.01 | 0.00 | 95 | 1015.4 |
| 20260831093534 | 70 | 0 | 0.0 | 2.0 | 0.00 | 0.01 | 0.00 | 95 | 1015.4 |
| 20260831093055 | 70 | 0 | 0.0 | 2.0 | 0.00 | 0.01 | 0.00 | 95 | 1015.4 |
| 20260831092534 | 70 | 11 | 1.0 | 1.0 | 0.00 | 0.01 | 0.00 | 95 | 1015.4 |
| 20260831092035 | 70 | 11 | 1.0 | 2.0 | 0.00 | 0.01 | 0.00 | 95 | 1015.4 |
| 20260831091602 | 70 | 11 | 0.0 | 2.0 | 0.00 | 0.01 | 0.00 | 95 | 1015.5 |
| 20260831091033 | 70 | 11 | 0.0 | 2.0 | 0.00 | 0.01 | 0.00 | 95 | 1015.6 |
| 20260831090535 | 70 | 0 | 0.0 | 0.0 | 0.00 | 0.01 | 0.00 | 95 | 1015.6 |
| 20260831090100 | 70 | 0 | 0.0 | 0.0 | 0.00 | 0.01 | 0.00 | 95 | 1015.6 |
| 20260831085534 | 70 | 0 | 0.0 | 0.0 | 0.00 | 0.01 | 0.00 | 95 | 1015.7 |
| 20260831085035 | 70 | 0 | 0.0 | 2.0 | 0.00 | 0.01 | 0.00 | 95 | 1015.7 |
| 20260831084603 | 70 | 0 | 0.0 | 2.0 | 0.00 | 0.01 | 0.00 | 95 | 1015.8 |
| 20260831084035 | 70 | 11 | 0.0 | 3.0 | 0.00 | 0.01 | 0.00 | 95 | 1015.9 |
| 20260831083535 | 70 | 11 | 2.0 | 3.0 | 0.00 | 0.01 | 0.00 | 95 | 1016.0 |
| 20260831083111 | 70 | 46 | 1.0 | 2.0 | 0.00 | 0.01 | 0.00 | 95 | 1016.1 |
| 20260831082533 | 70 | 98 | 1.0 | 1.0 | 0.00 | 0.01 | 0.00 | 95 | 1016.1 |
| 20260831082035 | 70 | 98 | 0.0 | 1.0 | 0.00 | 0.01 | 0.00 | 95 | 1016.0 |
| 20260831081608 | 70 | 98 | 1.0 | 1.0 | 0.00 | 0.01 | 0.00 | 95 | 1016.0 |
| 20260831081034 | 70 | 98 | 0.0 | 0.0 | 0.00 | 0.01 | 0.00 | 94 | 1016.0 |
| 20260831080534 | 70 | 0 | 0.0 | 0.0 | 0.00 | 0.01 | 0.00 | 94 | 1015.9 |
| 20260831080057 | 70 | 0 | 0.0 | 0.0 | 0.00 | 0.01 | 0.00 | 94 | 1015.9 |
| 20260831075534 | 70 | 0 | 0.0 | 0.0 | 0.00 | 0.01 | 0.00 | 95 | 1015.8 |
| 20260831075032 | 70 | 0 | 0.0 | 0.0 | 0.00 | 0.01 | 0.00 | 94 | 1015.8 |
| 20260831074618 | 70 | 0 | 0.0 | 0.0 | 0.00 | 0.01 | 0.00 | 94 | 1015.7 |
| 20260831074033 | 71 | 0 | 0.0 | 0.0 | 0.00 | 0.01 | 0.00 | 95 | 1015.7 |
| 20260831073534 | 70 | 0 | 0.0 | 1.0 | 0.00 | 0.01 | 0.00 | 95 | 1015.8 |
| 20260831073107 | 71 | 0 | 0.0 | 2.0 | 0.00 | 0.01 | 0.00 | 95 | 1015.8 |
| 20260831072533 | 71 | 0 | 0.0 | 2.0 | 0.00 | 0.01 | 0.00 | 95 | 1016.0 |
| 20260831072034 | 71 | 98 | 0.0 | 2.0 | 0.00 | 0.01 | 0.00 | 94 | 1016.1 |
| 20260831071559 | 71 | 98 | 0.0 | 2.0 | 0.00 | 0.01 | 0.00 | 94 | 1016.1 |
| 20260831071034 | 71 | 98 | 0.0 | 2.0 | 0.00 | 0.01 | 0.00 | 94 | 1016.1 |
| 20260831070536 | 71 | 98 | 0.0 | 2.0 | 0.00 | 0.01 | 0.00 | 94 | 1016.1 |
| 20260831065536 | 71 | 0 | 0.0 | 2.0 | 0.00 | 0.01 | 0.00 | 94 | 1016.0 |
| 20260831065033 | 71 | 0 | 0.0 | 2.0 | 0.00 | 0.01 | 0.00 | 94 | 1016.0 |
| 20260831064601 | 71 | 0 | 0.0 | 2.0 | 0.00 | 0.01 | 0.00 | 94 | 1016.1 |
| 20260831064034 | 71 | 98 | 0.0 | 2.0 | 0.00 | 0.01 | 0.00 | 94 | 1016.1 |
| 20260831063534 | 71 | 98 | 0.0 | 2.0 | 0.00 | 0.01 | 0.00 | 94 | 1016.1 |
| 20260831063058 | 71 | 98 | 1.0 | 2.0 | 0.00 | 0.01 | 0.00 | 94 | 1016.2 |
| 20260831062535 | 71 | 217 | 1.0 | 2.0 | 0.00 | 0.01 | 0.00 | 94 | 1016.2 |
| 20260831062035 | 71 | 217 | 1.0 | 2.0 | 0.00 | 0.01 | 0.00 | 93 | 1016.2 |
| 20260831061600 | 71 | 186 | 0.0 | 2.0 | 0.00 | 0.01 | 0.00 | 94 | 1016.2 |
| 20260831061037 | 72 | 186 | 1.0 | 2.0 | 0.00 | 0.01 | 0.00 | 95 | 1016.1 |
| 20260831060534 | 72 | 185 | 1.0 | 2.0 | 0.00 | 0.01 | 0.00 | 94 | 1016.3 |
| 20260831060100 | 72 | 185 | 0.0 | 2.0 | 0.00 | 0.01 | 0.00 | 94 | 1016.3 |
| 20260831055536 | 72 | 185 | 0.0 | 1.0 | 0.00 | 0.01 | 0.00 | 94 | 1016.5 |
| 20260831055034 | 72 | 185 | 1.0 | 2.0 | 0.00 | 0.01 | 0.00 | 94 | 1016.7 |
| 20260831054600 | 72 | 185 | 1.0 | 2.0 | 0.00 | 0.01 | 0.00 | 94 | 1016.9 |
| 20260831054034 | 72 | 185 | 0.0 | 2.0 | 0.00 | 0.01 | 0.00 | 94 | 1016.8 |
| 20260831053535 | 72 | 185 | 0.0 | 2.0 | 0.00 | 0.01 | 0.00 | 94 | 1016.9 |
| 20260831053058 | 72 | 0 | 0.0 | 2.0 | 0.00 | 0.01 | 0.00 | 94 | 1016.9 |
| 20260831052535 | 72 | 0 | 0.0 | 2.0 | 0.00 | 0.01 | 0.00 | 94 | 1016.8 |
| 20260831052033 | 72 | 185 | 0.0 | 2.0 | 0.00 | 0.01 | 0.00 | 94 | 1016.8 |
| 20260831051553 | 72 | 185 | 1.0 | 2.0 | 0.00 | 0.01 | 0.00 | 94 | 1016.7 |
| 20260831051034 | 72 | 185 | 1.0 | 2.0 | 0.00 | 0.01 | 0.00 | 94 | 1016.8 |
| 20260831050540 | 72 | 0 | 0.0 | 3.0 | 0.00 | 0.01 | 0.00 | 94 | 1016.8 |
| 20260831050100 | 72 | 185 | 1.0 | 4.0 | 0.00 | 0.01 | 0.00 | 94 | 1016.8 |
| 20260831045538 | 72 | 185 | 2.0 | 4.0 | 0.00 | 0.01 | 0.00 | 94 | 1016.9 |
| 20260831045036 | 72 | 170 | 0.0 | 2.0 | 0.00 | 0.01 | 0.00 | 94 | 1016.9 |
| 20260831044613 | 72 | 170 | 2.0 | 2.0 | 0.00 | 0.01 | 0.00 | 93 | 1017.0 |
| 20260831044037 | 72 | 0 | 0.0 | 2.0 | 0.00 | 0.01 | 0.00 | 93 | 1017.0 |
| 20260831043534 | 72 | 93 | 0.0 | 2.0 | 0.00 | 0.01 | 0.00 | 93 | 1016.9 |
| 20260831043110 | 72 | 0 | 0.0 | 2.0 | 0.00 | 0.01 | 0.00 | 93 | 1017.0 |
| 20260831042536 | 72 | 0 | 0.0 | 2.0 | 0.00 | 0.01 | 0.00 | 93 | 1017.1 |
| 20260831042034 | 73 | 0 | 0.0 | 2.0 | 0.00 | 0.01 | 0.00 | 93 | 1017.1 |
| 20260831041601 | 73 | 93 | 1.0 | 2.0 | 0.00 | 0.01 | 0.00 | 93 | 1017.2 |
| 20260831041035 | 73 | 93 | 0.0 | 2.0 | 0.00 | 0.01 | 0.00 | 93 | 1017.2 |
| 20260831040535 | 73 | 0 | 0.0 | 2.0 | 0.00 | 0.01 | 0.00 | 93 | 1017.2 |
| 20260831040101 | 73 | 0 | 0.0 | 2.0 | 0.00 | 0.01 | 0.00 | 93 | 1017.2 |
| 20260831035534 | 73 | 93 | 0.0 | 1.0 | 0.00 | 0.01 | 0.01 | 93 | 1017.1 |
| 20260831035034 | 73 | 93 | 0.0 | 1.0 | 0.00 | 0.01 | 0.01 | 93 | 1017.1 |
| 20260831034556 | 73 | 93 | 1.0 | 1.0 | 0.00 | 0.01 | 0.01 | 93 | 1017.2 |
| 20260831034034 | 73 | 93 | 1.0 | 1.0 | 0.00 | 0.01 | 0.01 | 93 | 1017.3 |
| 20260831033534 | 73 | 93 | 1.0 | 2.0 | 0.00 | 0.01 | 0.01 | 93 | 1017.2 |
| 20260831033101 | 73 | 93 | 0.0 | 2.0 | 0.00 | 0.01 | 0.01 | 93 | 1017.4 |
| 20260831032533 | 73 | 0 | 0.0 | 1.0 | 0.00 | 0.01 | 0.01 | 93 | 1017.6 |
| 20260831032033 | 73 | 93 | 0.0 | 2.0 | 0.00 | 0.01 | 0.01 | 93 | 1017.5 |
| 20260831031552 | 73 | 0 | 0.0 | 2.0 | 0.00 | 0.01 | 0.01 | 92 | 1017.5 |
| 20260831031036 | 73 | 0 | 0.0 | 0.0 | 0.00 | 0.01 | 0.01 | 92 | 1017.6 |
| 20260831030535 | 74 | 0 | 0.0 | 0.0 | 0.00 | 0.01 | 0.01 | 92 | 1017.6 |
| 20260831025534 | 74 | 0 | 0.0 | 2.0 | 0.00 | 0.01 | 0.01 | 92 | 1017.5 |
| 20260831025035 | 74 | 93 | 0.0 | 2.0 | 0.00 | 0.01 | 0.01 | 92 | 1017.3 |
| 20260831024555 | 74 | 93 | 0.0 | 2.0 | 0.00 | 0.01 | 0.01 | 92 | 1017.3 |
| 20260831024035 | 74 | 93 | 1.0 | 2.0 | 0.00 | 0.01 | 0.01 | 91 | 1017.1 |
| 20260831023534 | 74 | 93 | 0.0 | 2.0 | 0.00 | 0.01 | 0.01 | 91 | 1017.1 |
| 20260831023104 | 74 | 93 | 0.0 | 2.0 | 0.00 | 0.01 | 0.01 | 91 | 1017.2 |
| 20260831022537 | 75 | 0 | 0.0 | 2.0 | 0.00 | 0.01 | 0.01 | 91 | 1017.2 |
| 20260831022035 | 75 | 93 | 0.0 | 2.0 | 0.00 | 0.01 | 0.01 | 91 | 1017.0 |
| 20260831021600 | 75 | 93 | 0.0 | 2.0 | 0.00 | 0.01 | 0.01 | 91 | 1017.1 |
| 20260831021035 | 75 | 0 | 0.0 | 2.0 | 0.00 | 0.01 | 0.01 | 91 | 1017.2 |
| 20260831020538 | 75 | 93 | 0.0 | 1.0 | 0.00 | 0.01 | 0.01 | 91 | 1017.3 |
| 20260831015534 | 75 | 93 | 1.0 | 2.0 | 0.00 | 0.01 | 0.01 | 91 | 1017.4 |
| 20260831015037 | 75 | 93 | 1.0 | 1.0 | 0.00 | 0.01 | 0.01 | 90 | 1017.4 |
| 20260831014557 | 75 | 93 | 1.0 | 1.0 | 0.00 | 0.01 | 0.01 | 90 | 1017.3 |
| 20260831014034 | 75 | 93 | 0.0 | 2.0 | 0.00 | 0.01 | 0.01 | 90 | 1017.5 |
| 20260831013534 | 75 | 0 | 0.0 | 2.0 | 0.00 | 0.01 | 0.01 | 90 | 1017.4 |
| 20260831013101 | 76 | 93 | 0.0 | 3.0 | 0.00 | 0.01 | 0.01 | 90 | 1017.3 |
| 20260831012533 | 76 | 93 | 1.0 | 3.0 | 0.00 | 0.01 | 0.01 | 90 | 1017.3 |
| 20260831012036 | 76 | 93 | 2.0 | 3.0 | 0.00 | 0.01 | 0.01 | 90 | 1017.3 |
| 20260831011558 | 76 | 93 | 1.0 | 2.0 | 0.00 | 0.01 | 0.01 | 90 | 1017.3 |
| 20260831011037 | 76 | 93 | 1.0 | 2.0 | 0.00 | 0.01 | 0.01 | 89 | 1017.3 |
| 20260831010535 | 76 | 93 | 2.0 | 2.0 | 0.00 | 0.01 | 0.01 | 89 | 1017.3 |
| 20260831010055 | 76 | 93 | 1.0 | 2.0 | 0.00 | 0.01 | 0.01 | 89 | 1017.4 |
| 20260831005535 | 76 | 85 | 1.0 | 3.0 | 0.00 | 0.01 | 0.01 | 88 | 1017.3 |
| 20260831005034 | 77 | 78 | 2.0 | 3.0 | 0.00 | 0.01 | 0.01 | 88 | 1017.1 |
| 20260831004600 | 77 | 88 | 2.0 | 4.0 | 0.00 | 0.01 | 0.01 | 88 | 1017.1 |
| 20260831004042 | 77 | 75 | 2.0 | 6.0 | 0.00 | 0.01 | 0.01 | 87 | 1016.9 |
| 20260831003534 | 77 | 86 | 2.0 | 6.0 | 0.00 | 0.01 | 0.01 | 87 | 1017.0 |
| 20260831003102 | 77 | 82 | 3.0 | 6.0 | 0.00 | 0.01 | 0.01 | 87 | 1017.0 |
| 20260831002534 | 77 | 80 | 3.0 | 6.0 | 0.00 | 0.01 | 0.01 | 86 | 1017.0 |
| 20260831002034 | 78 | 93 | 3.0 | 6.0 | 0.00 | 0.01 | 0.01 | 86 | 1017.0 |
| 20260831001559 | 78 | 91 | 3.0 | 6.0 | 0.00 | 0.01 | 0.01 | 85 | 1016.8 |
| 20260831001034 | 78 | 86 | 3.0 | 7.0 | 0.00 | 0.01 | 0.01 | 85 | 1016.6 |
| 20260831000534 | 78 | 92 | 3.0 | 6.0 | 0.00 | 0.01 | 0.01 | 84 | 1016.6 |
| 20260831000106 | 78 | 102 | 3.0 | 6.0 | 0.00 | 0.01 | 0.01 | 83 | 1016.6 |
| 20260830235533 | 79 | 87 | 3.0 | 4.0 | 0.00 | 0.01 | 0.01 | 82 | 1016.5 |
| 20260830235034 | 79 | 94 | 3.0 | 5.0 | 0.00 | 0.01 | 0.01 | 82 | 1016.6 |
| 20260830234604 | 79 | 94 | 3.0 | 6.0 | 0.00 | 0.01 | 0.01 | 82 | 1016.4 |
| 20260830234033 | 79 | 101 | 3.0 | 7.0 | 0.00 | 0.01 | 0.01 | 81 | 1016.3 |
| 20260830233539 | 80 | 92 | 3.0 | 8.0 | 0.00 | 0.01 | 0.01 | 81 | 1016.3 |
| 20260830233101 | 80 | 104 | 4.0 | 8.0 | 0.00 | 0.01 | 0.01 | 80 | 1016.3 |
| 20260830232535 | 81 | 94 | 3.0 | 8.0 | 0.00 | 0.01 | 0.01 | 80 | 1016.3 |
| 20260830232034 | 81 | 89 | 4.0 | 8.0 | 0.00 | 0.01 | 0.01 | 79 | 1016.1 |
| 20260830231555 | 82 | 91 | 4.0 | 7.0 | 0.00 | 0.01 | 0.01 | 79 | 1015.9 |
| 20260830231034 | 82 | 108 | 2.0 | 6.0 | 0.00 | 0.01 | 0.01 | 78 | 1015.9 |
| 20260830230533 | 82 | 95 | 3.0 | 6.0 | 0.00 | 0.01 | 0.01 | 78 | 1015.9 |
| 20260830230106 | 83 | 125 | 2.0 | 4.0 | 0.00 | 0.01 | 0.01 | 78 | 1015.9 |
| 20260830225535 | 83 | 99 | 2.0 | 7.0 | 0.00 | 0.01 | 0.01 | 77 | 1016.0 |
| 20260830225034 | 83 | 92 | 4.0 | 7.0 | 0.00 | 0.01 | 0.01 | 76 | 1016.0 |
| 20260830224559 | 84 | 109 | 2.0 | 6.0 | 0.00 | 0.01 | 0.01 | 76 | 1016.0 |
| 20260830224035 | 84 | 77 | 1.0 | 3.0 | 0.00 | 0.01 | 0.01 | 76 | 1016.1 |
| 20260830223537 | 84 | 88 | 1.0 | 3.0 | 0.00 | 0.01 | 0.01 | 76 | 1016.2 |
| 20260830223058 | 84 | 109 | 2.0 | 3.0 | 0.00 | 0.01 | 0.01 | 75 | 1016.3 |
| 20260830222538 | 84 | 101 | 2.0 | 4.0 | 0.00 | 0.01 | 0.01 | 74 | 1016.2 |
| 20260830222038 | 84 | 66 | 2.0 | 4.0 | 0.00 | 0.01 | 0.01 | 73 | 1016.2 |
| 20260830221609 | 85 | 107 | 1.0 | 4.0 | 0.00 | 0.01 | 0.01 | 73 | 1016.2 |
| 20260830221038 | 85 | 94 | 2.0 | 4.0 | 0.00 | 0.01 | 0.01 | 72 | 1016.2 |
| 20260830220534 | 85 | 94 | 3.0 | 4.0 | 0.00 | 0.01 | 0.01 | 72 | 1016.2 |
| 20260830220108 | 85 | 109 | 3.0 | 6.0 | 0.00 | 0.01 | 0.01 | 73 | 1016.1 |
| 20260830215535 | 85 | 79 | 3.0 | 6.0 | 0.00 | 0.02 | 0.01 | 72 | 1016.2 |
| 20260830215034 | 85 | 106 | 3.0 | 7.0 | 0.00 | 0.02 | 0.01 | 72 | 1016.2 |
| 20260830214626 | 85 | 121 | 4.0 | 7.0 | 0.00 | 0.02 | 0.01 | 72 | 1016.2 |
| 20260830214034 | 86 | 126 | 3.0 | 6.0 | 0.00 | 0.02 | 0.01 | 73 | 1016.2 |
| 20260830213535 | 86 | 94 | 3.0 | 6.0 | 0.00 | 0.02 | 0.01 | 73 | 1016.1 |
| 20260830213100 | 86 | 113 | 2.0 | 4.0 | 0.00 | 0.02 | 0.01 | 71 | 1016.2 |
| 20260830212537 | 85 | 130 | 0.0 | 4.0 | 0.00 | 0.02 | 0.01 | 71 | 1016.2 |
| 20260830212034 | 85 | 67 | 1.0 | 4.0 | 0.00 | 0.02 | 0.01 | 70 | 1016.3 |
| 20260830211600 | 85 | 55 | 2.0 | 4.0 | 0.00 | 0.02 | 0.01 | 70 | 1016.4 |
| 20260830211035 | 85 | 48 | 2.0 | 5.0 | 0.00 | 0.02 | 0.01 | 70 | 1016.3 |
| 20260830210535 | 85 | 33 | 2.0 | 5.0 | 0.00 | 0.02 | 0.01 | 72 | 1016.2 |
| 20260830210100 | 85 | 56 | 2.0 | 4.0 | 0.00 | 0.02 | 0.01 | 70 | 1016.2 |
| 20260830205534 | 85 | 63 | 2.0 | 3.0 | 0.00 | 0.02 | 0.01 | 71 | 1016.2 |
| 20260830205034 | 85 | 94 | 2.0 | 3.0 | 0.00 | 0.02 | 0.01 | 69 | 1016.3 |
| 20260830204555 | 86 | 46 | 2.0 | 3.0 | 0.00 | 0.02 | 0.01 | 68 | 1016.3 |
| 20260830204035 | 86 | 63 | 1.0 | 5.0 | 0.00 | 0.02 | 0.01 | 67 | 1016.2 |
| 20260830203534 | 86 | 74 | 3.0 | 5.0 | 0.00 | 0.02 | 0.01 | 69 | 1016.2 |
| 20260830203102 | 87 | 72 | 3.0 | 6.0 | 0.00 | 0.02 | 0.01 | 66 | 1016.2 |
| 20260830202536 | 87 | 167 | 1.0 | 11.0 | 0.00 | 0.02 | 0.01 | 66 | 1016.3 |
| 20260830202034 | 87 | 89 | 3.0 | 11.0 | 0.00 | 0.02 | 0.01 | 66 | 1016.4 |
| 20260830201602 | 86 | 100 | 1.0 | 6.0 | 0.00 | 0.02 | 0.01 | 69 | 1016.2 |
| 20260830201034 | 86 | 132 | 3.0 | 7.0 | 0.00 | 0.02 | 0.01 | 67 | 1016.3 |
| 20260830200535 | 86 | 93 | 3.0 | 7.0 | 0.00 | 0.02 | 0.01 | 70 | 1016.3 |
| 20260830200106 | 85 | 225 | 1.0 | 4.0 | 0.00 | 0.02 | 0.01 | 71 | 1016.4 |
| 20260830195537 | 86 | 83 | 3.0 | 6.0 | 0.00 | 0.43 | 0.01 | 69 | 1016.6 |
| 20260830195034 | 86 | 70 | 2.0 | 7.0 | 0.00 | 0.43 | 0.01 | 70 | 1016.6 |
| 20260830194607 | 86 | 122 | 3.0 | 7.0 | 0.00 | 0.43 | 0.01 | 70 | 1016.6 |
| 20260830194034 | 86 | 73 | 2.0 | 5.0 | 0.00 | 0.43 | 0.01 | 71 | 1016.7 |
| 20260830193535 | 86 | 87 | 1.0 | 5.0 | 0.00 | 0.43 | 0.01 | 72 | 1016.7 |
| 20260830193129 | 86 | 102 | 3.0 | 5.0 | 0.00 | 0.43 | 0.01 | 70 | 1016.7 |
| 20260830192533 | 86 | 128 | 1.0 | 6.0 | 0.00 | 0.43 | 0.01 | 71 | 1016.7 |
| 20260830192034 | 85 | 103 | 3.0 | 6.0 | 0.00 | 0.43 | 0.01 | 72 | 1016.9 |
| 20260830191557 | 85 | 122 | 3.0 | 5.0 | 0.00 | 0.43 | 0.01 | 73 | 1016.8 |
| 20260830191035 | 84 | 105 | 2.0 | 4.0 | 0.00 | 0.43 | 0.01 | 74 | 1016.8 |
| 20260830190534 | 84 | 80 | 2.0 | 6.0 | 0.00 | 0.43 | 0.01 | 72 | 1017.1 |
| 20260830190058 | 84 | 54 | 2.0 | 7.0 | 0.00 | 0.43 | 0.01 | 75 | 1017.2 |
| 20260830185535 | 84 | 83 | 2.0 | 7.0 | 0.00 | 0.43 | 0.01 | 76 | 1017.2 |
| 20260830185034 | 83 | 34 | 3.0 | 6.0 | 0.00 | 0.43 | 0.01 | 74 | 1017.2 |
| 20260830184605 | 83 | 72 | 3.0 | 5.0 | 0.00 | 0.43 | 0.01 | 75 | 1017.3 |
| 20260830184037 | 83 | 76 | 3.0 | 9.0 | 0.00 | 0.43 | 0.01 | 77 | 1017.3 |
| 20260830183534 | 83 | 15 | 5.0 | 9.0 | 0.00 | 0.43 | 0.01 | 78 | 1017.3 |
| 20260830183101 | 83 | 70 | 3.0 | 9.0 | 0.00 | 0.43 | 0.01 | 77 | 1017.3 |
| 20260830182535 | 84 | 87 | 3.0 | 6.0 | 0.00 | 0.43 | 0.01 | 78 | 1017.3 |
| 20260830182035 | 84 | 74 | 3.0 | 6.0 | 0.00 | 0.43 | 0.01 | 78 | 1017.5 |
| 20260830181601 | 83 | 53 | 4.0 | 8.0 | 0.00 | 0.43 | 0.01 | 80 | 1017.7 |
| 20260830181035 | 82 | 32 | 5.0 | 8.0 | 0.00 | 0.43 | 0.01 | 78 | 1017.7 |
| 20260830180535 | 82 | 33 | 4.0 | 9.0 | 0.00 | 0.43 | 0.01 | 78 | 1017.7 |
| 20260830180100 | 82 | 59 | 5.0 | 10.0 | 0.00 | 0.43 | 0.01 | 79 | 1017.8 |
| 20260830175534 | 82 | 60 | 4.0 | 10.0 | 0.00 | 0.43 | 0.01 | 80 | 1017.9 |